Time;durP1;ratioP1;P1;durP2;ratioP2;P2;SDS_P1;SDS_P2;PMS_P1;PMS_P2;Temp;Humidity;BMP_temperature;BMP_pressure;BME280_temperature;BME280_humidity;BME280_pressure;Samples;Min_cycle;Max_cycle;Signal;HPM_P1;HPM_P2
2024/02/05 00:00:31;;;;;;;12.38;3.05;;;8.70;99.90;;;;;;4935658;28;20165;-53
2024/02/05 00:02:57;;;;;;;10.38;2.97;;;8.70;99.90;;;;;;4921492;28;20069;-57
2024/02/05 00:05:23;;;;;;;6.05;2.55;;;8.70;99.90;;;;;;4975051;28;20026;-59
2024/02/05 00:07:49;;;;;;;12.45;3.75;;;8.70;99.90;;;;;;4933019;28;20054;-55
2024/02/05 00:10:15;;;;;;;11.38;3.88;;;8.70;99.90;;;;;;4952978;28;20026;-58
2024/02/05 00:12:40;;;;;;;9.70;3.47;;;8.70;99.90;;;;;;4927336;28;20038;-56
2024/02/05 00:15:07;;;;;;;11.52;3.35;;;8.70;99.90;;;;;;4959243;28;20117;-58
2024/02/05 00:17:32;;;;;;;10.07;4.15;;;8.70;99.90;;;;;;4957454;28;20114;-57
2024/02/05 00:19:58;;;;;;;9.30;3.70;;;8.70;99.90;;;;;;4920070;28;20501;-55
2024/02/05 00:22:24;;;;;;;12.05;3.42;;;8.60;99.90;;;;;;4945568;28;20117;-56
2024/02/05 00:24:50;;;;;;;13.23;3.50;;;8.60;99.90;;;;;;4898695;28;20160;-55
2024/02/05 00:27:15;;;;;;;10.70;3.75;;;8.60;99.90;;;;;;4951719;28;20050;-54
2024/02/05 00:29:41;;;;;;;13.43;3.75;;;8.60;99.90;;;;;;4964686;28;20071;-57
2024/02/05 00:32:07;;;;;;;12.32;3.70;;;8.70;99.90;;;;;;4910858;28;20499;-55
2024/02/05 00:34:32;;;;;;;13.35;3.88;;;8.70;99.90;;;;;;4889472;28;20040;-57
2024/02/05 00:36:58;;;;;;;10.15;3.45;;;8.60;99.90;;;;;;4922152;28;21398;-57
2024/02/05 00:39:24;;;;;;;14.70;3.58;;;8.70;99.90;;;;;;4926654;28;20022;-56
2024/02/05 00:41:49;;;;;;;12.88;3.15;;;8.70;99.90;;;;;;4953214;28;20687;-62
2024/02/05 00:44:15;;;;;;;12.43;2.92;;;8.60;99.90;;;;;;4950599;28;20125;-55
2024/02/05 00:46:41;;;;;;;12.05;3.22;;;8.60;99.90;;;;;;4934284;28;20714;-55
2024/02/05 00:49:06;;;;;;;8.85;3.33;;;8.60;99.90;;;;;;4900451;28;20062;-56
2024/02/05 00:51:32;;;;;;;11.38;3.53;;;8.60;99.90;;;;;;4921798;28;20050;-55
2024/02/05 00:53:58;;;;;;;16.73;3.95;;;8.60;99.90;;;;;;4946140;28;20041;-60
2024/02/05 00:56:24;;;;;;;10.82;3.55;;;8.60;99.90;;;;;;4959399;28;20035;-53
2024/02/05 00:58:50;;;;;;;12.52;3.63;;;8.50;99.90;;;;;;4904473;28;20462;-54
2024/02/05 01:01:16;;;;;;;7.88;3.05;;;8.50;99.90;;;;;;4899477;28;20030;-56
2024/02/05 01:03:42;;;;;;;13.77;4.05;;;8.50;99.90;;;;;;4915981;28;20129;-55
2024/02/05 01:06:08;;;;;;;12.13;3.53;;;8.50;99.90;;;;;;4905726;28;22317;-55
2024/02/05 01:08:35;;;;;;;17.45;4.28;;;8.50;99.90;;;;;;4964200;28;20026;-53
2024/02/05 01:11:01;;;;;;;12.18;3.65;;;8.40;99.90;;;;;;4887460;28;20045;-57
2024/02/05 01:13:26;;;;;;;16.40;3.63;;;8.40;99.90;;;;;;4923131;22;20135;-52
2024/02/05 01:15:52;;;;;;;14.88;3.88;;;8.40;99.90;;;;;;4910712;28;20105;-51
2024/02/05 01:18:18;;;;;;;17.83;4.53;;;8.40;99.90;;;;;;4935437;28;20493;-51
2024/02/05 01:20:43;;;;;;;13.73;3.92;;;8.40;99.90;;;;;;4936439;28;20026;-51
2024/02/05 01:23:09;;;;;;;9.32;3.78;;;8.30;99.90;;;;;;4896340;28;20023;-51
2024/02/05 01:25:35;;;;;;;12.48;3.50;;;8.30;99.90;;;;;;4926933;28;20081;-52
2024/02/05 01:28:01;;;;;;;16.15;4.22;;;8.30;99.90;;;;;;4915656;28;21212;-48
2024/02/05 01:30:28;;;;;;;17.20;4.05;;;8.40;99.90;;;;;;4969766;28;20091;-53
2024/02/05 01:32:53;;;;;;;11.27;4.10;;;8.30;99.90;;;;;;4955937;28;20070;-48
2024/02/05 01:35:19;;;;;;;8.15;3.33;;;8.30;99.90;;;;;;4918824;28;20117;-47
2024/02/05 01:37:45;;;;;;;8.07;2.60;;;8.30;99.90;;;;;;4936939;28;20137;-49
2024/02/05 01:40:10;;;;;;;9.15;2.70;;;8.30;99.90;;;;;;4952197;28;21146;-53
2024/02/05 01:42:37;;;;;;;10.63;3.42;;;8.30;99.90;;;;;;4975982;28;20565;-51
2024/02/05 01:45:04;;;;;;;12.88;4.05;;;8.30;99.90;;;;;;4928613;28;20424;-50
2024/02/05 01:47:31;;;;;;;9.45;2.95;;;8.30;99.90;;;;;;4917360;28;20062;-49
2024/02/05 01:49:57;;;;;;;8.52;2.92;;;8.20;99.90;;;;;;4927612;28;20112;-48
2024/02/05 01:52:23;;;;;;;9.73;2.92;;;8.30;99.90;;;;;;4925024;28;20121;-53
2024/02/05 01:54:49;;;;;;;8.88;2.35;;;8.30;99.90;;;;;;4937407;28;20734;-58
2024/02/05 01:57:16;;;;;;;7.72;2.45;;;8.30;99.90;;;;;;4956458;28;20581;-51
2024/02/05 01:59:41;;;;;;;5.97;1.92;;;8.30;99.90;;;;;;4934353;28;20069;-52
2024/02/05 02:02:08;;;;;;;9.57;2.58;;;8.20;99.90;;;;;;4943454;28;20073;-47
2024/02/05 02:04:34;;;;;;;8.60;2.13;;;8.30;99.90;;;;;;4935323;28;20511;-47
2024/02/05 02:07:01;;;;;;;9.93;1.92;;;8.20;99.90;;;;;;4907138;28;21166;-52
2024/02/05 02:09:27;;;;;;;7.13;2.15;;;8.20;99.90;;;;;;4974203;28;20028;-51
2024/02/05 02:11:52;;;;;;;8.35;2.85;;;8.20;99.90;;;;;;4951373;28;20030;-49
2024/02/05 02:14:18;;;;;;;7.47;2.70;;;8.20;99.90;;;;;;4947480;28;20035;-53
2024/02/05 02:16:44;;;;;;;7.78;2.25;;;8.20;99.90;;;;;;4935229;28;20088;-54
2024/02/05 02:19:42;;;;;;;8.68;2.67;;;8.20;99.90;;;;;;4902017;28;20029;-48
2024/02/05 02:22:25;;;;;;;13.77;2.97;;;8.20;99.90;;;;;;4936870;28;21531;-52
2024/02/05 02:24:51;;;;;;;8.43;2.90;;;8.20;99.90;;;;;;4920063;28;20030;-52
2024/02/05 02:27:17;;;;;;;8.82;3.22;;;8.20;99.90;;;;;;4965307;28;20053;-56
2024/02/05 02:29:44;;;;;;;10.52;3.45;;;8.20;99.90;;;;;;4936771;28;20045;-52
2024/02/05 02:32:20;;;;;;;7.97;2.35;;;8.10;99.90;;;;;;4917832;28;20092;-49
2024/02/05 02:34:47;;;;;;;10.02;3.17;;;8.10;99.90;;;;;;4914135;28;20026;-52
2024/02/05 02:37:16;;;;;;;4.93;2.72;;;8.10;99.90;;;;;;4916508;28;20056;-49
2024/02/05 02:40:09;;;;;;;9.93;2.78;;;8.10;99.90;;;;;;4961224;28;20092;-57
2024/02/05 02:42:41;;;;;;;8.52;2.83;;;8.10;99.90;;;;;;4971701;28;20035;-50
2024/02/05 02:45:10;;;;;;;11.15;3.22;;;8.10;99.90;;;;;;4932337;28;20042;-56
2024/02/05 02:47:36;;;;;;;6.68;2.80;;;8.10;99.90;;;;;;4942541;28;20507;-52
2024/02/05 02:50:02;;;;;;;11.07;3.38;;;8.10;99.90;;;;;;4915352;28;20033;-49
2024/02/05 02:52:28;;;;;;;5.95;2.75;;;8.00;99.90;;;;;;4926921;28;20027;-53
2024/02/05 02:54:53;;;;;;;13.98;3.03;;;8.00;99.90;;;;;;4937304;28;20069;-51
2024/02/05 02:57:19;;;;;;;14.00;3.20;;;8.10;99.90;;;;;;4979770;28;20030;-49
2024/02/05 02:59:44;;;;;;;11.73;3.88;;;8.10;99.90;;;;;;4941293;28;20060;-52
2024/02/05 03:02:10;;;;;;;10.25;3.17;;;8.10;99.90;;;;;;4912781;28;20060;-51
2024/02/05 03:04:35;;;;;;;11.88;3.13;;;8.00;99.90;;;;;;4921201;28;20506;-52
2024/02/05 03:07:01;;;;;;;7.28;2.28;;;8.00;99.90;;;;;;4914246;28;20034;-53
2024/02/05 03:09:27;;;;;;;8.68;3.50;;;8.00;99.90;;;;;;4976504;28;20093;-49
2024/02/05 03:11:52;;;;;;;11.95;4.05;;;8.00;99.90;;;;;;4917041;28;20034;-51
2024/02/05 03:14:18;;;;;;;12.25;3.03;;;8.00;99.90;;;;;;4904935;28;20080;-52
2024/02/05 03:16:44;;;;;;;9.68;3.15;;;8.00;99.90;;;;;;4883750;28;20031;-51
2024/02/05 03:19:09;;;;;;;13.65;4.10;;;8.00;99.90;;;;;;4905171;28;21901;-51
2024/02/05 03:21:35;;;;;;;9.40;2.67;;;8.00;99.90;;;;;;4967382;28;20280;-50
2024/02/05 03:24:01;;;;;;;8.13;3.40;;;8.00;99.90;;;;;;4912100;28;20034;-59
2024/02/05 03:26:26;;;;;;;8.23;2.50;;;8.00;99.90;;;;;;4894862;28;20034;-53
2024/02/05 03:28:52;;;;;;;12.60;3.03;;;8.00;99.90;;;;;;4913949;28;20042;-52
2024/02/05 03:31:18;;;;;;;9.73;2.75;;;8.00;99.90;;;;;;4897003;28;20100;-59
2024/02/05 03:33:43;;;;;;;9.25;2.80;;;8.00;99.90;;;;;;4941634;28;20015;-57
2024/02/05 03:36:09;;;;;;;9.82;2.70;;;8.00;99.90;;;;;;4945129;28;20080;-46
2024/02/05 03:38:34;;;;;;;3.38;1.95;;;8.00;99.90;;;;;;4921549;28;20031;-53
2024/02/05 03:41:00;;;;;;;12.13;2.50;;;8.00;99.90;;;;;;4874655;28;20065;-49
2024/02/05 03:43:25;;;;;;;13.15;2.88;;;8.00;99.90;;;;;;4912182;28;20030;-54
2024/02/05 03:45:51;;;;;;;8.40;3.00;;;8.00;99.90;;;;;;4928587;28;20033;-58
2024/02/05 03:48:19;;;;;;;7.15;2.25;;;8.00;99.90;;;;;;4968222;28;20459;-51
2024/02/05 03:50:45;;;;;;;9.20;2.65;;;8.00;99.90;;;;;;4924879;28;20034;-49
2024/02/05 03:53:10;;;;;;;7.20;2.58;;;7.90;99.90;;;;;;4911374;28;20045;-54
2024/02/05 03:55:36;;;;;;;11.05;2.33;;;8.00;99.90;;;;;;4927130;28;20030;-49
2024/02/05 03:58:03;;;;;;;7.40;2.42;;;8.00;99.90;;;;;;4911635;28;21354;-54
2024/02/05 04:00:29;;;;;;;9.18;2.50;;;8.00;99.90;;;;;;4971049;28;20035;-52
2024/02/05 04:02:55;;;;;;;4.47;2.42;;;8.00;99.90;;;;;;4941435;28;20035;-49
2024/02/05 04:05:21;;;;;;;6.22;2.20;;;8.00;99.90;;;;;;4938158;28;20542;-51
2024/02/05 04:07:47;;;;;;;5.13;1.85;;;8.00;99.90;;;;;;4928515;28;20093;-49
2024/02/05 04:10:13;;;;;;;5.28;1.77;;;8.00;99.90;;;;;;4935670;28;22254;-51
2024/02/05 04:12:38;;;;;;;4.13;1.77;;;8.00;99.90;;;;;;4978945;28;20037;-51
2024/02/05 04:15:04;;;;;;;8.30;2.17;;;8.00;99.90;;;;;;4935528;28;20037;-49
2024/02/05 04:17:30;;;;;;;6.15;1.77;;;8.00;99.90;;;;;;4939106;28;20038;-50
2024/02/05 04:19:55;;;;;;;8.73;2.13;;;8.00;99.90;;;;;;4937179;28;20038;-50
2024/02/05 04:22:21;;;;;;;8.45;2.35;;;8.10;99.90;;;;;;4936893;28;20371;-50
2024/02/05 04:24:47;;;;;;;11.18;2.40;;;8.10;99.90;;;;;;4956985;28;20027;-59
2024/02/05 04:27:14;;;;;;;7.43;2.78;;;8.00;99.90;;;;;;4942935;28;20062;-49
2024/02/05 04:29:40;;;;;;;8.45;2.47;;;8.10;99.90;;;;;;4932338;28;20038;-50
2024/02/05 04:32:06;;;;;;;7.97;3.15;;;8.00;99.90;;;;;;4924015;28;20022;-53
2024/02/05 04:34:31;;;;;;;14.85;3.58;;;8.00;99.90;;;;;;4930006;28;20034;-53
2024/02/05 04:36:57;;;;;;;8.80;2.85;;;8.00;99.90;;;;;;4925564;28;20043;-50
2024/02/05 04:39:23;;;;;;;15.75;4.32;;;8.00;99.90;;;;;;4967793;28;20137;-49
2024/02/05 04:41:49;;;;;;;8.88;2.85;;;8.00;99.90;;;;;;4926005;28;20019;-49
2024/02/05 04:44:15;;;;;;;10.52;3.03;;;8.00;99.90;;;;;;4917909;28;20479;-48
2024/02/05 04:46:41;;;;;;;13.05;3.55;;;8.10;99.90;;;;;;4919608;28;20061;-52
2024/02/05 04:49:06;;;;;;;11.00;2.97;;;8.00;99.90;;;;;;4935953;28;21717;-49
2024/02/05 04:51:32;;;;;;;10.00;3.47;;;8.00;99.90;;;;;;4960703;28;20105;-52
2024/02/05 04:53:58;;;;;;;10.63;3.42;;;8.10;99.90;;;;;;4921581;28;20043;-52
2024/02/05 04:56:23;;;;;;;16.45;4.63;;;8.00;99.90;;;;;;4903690;28;20445;-51
2024/02/05 04:58:51;;;;;;;13.32;4.43;;;8.00;99.90;;;;;;4865478;28;20022;-50
2024/02/05 05:01:16;;;;;;;14.45;4.53;;;8.00;99.90;;;;;;4932815;28;20128;-53
2024/02/05 05:03:42;;;;;;;14.68;4.80;;;8.10;99.90;;;;;;4963152;28;20057;-50
2024/02/05 05:06:07;;;;;;;20.10;5.38;;;8.10;99.90;;;;;;4895229;28;20034;-53
2024/02/05 05:08:33;;;;;;;15.18;5.43;;;8.10;99.90;;;;;;4912651;28;20056;-53
2024/02/05 05:10:59;;;;;;;14.90;4.90;;;8.10;99.90;;;;;;4913729;28;20030;-52
2024/02/05 05:13:24;;;;;;;25.73;6.10;;;8.10;99.90;;;;;;4919847;28;20034;-54
2024/02/05 05:15:50;;;;;;;15.45;5.63;;;8.10;99.90;;;;;;4940451;28;20049;-59
2024/02/05 05:18:16;;;;;;;23.90;6.65;;;8.10;99.90;;;;;;4943286;28;20049;-54
2024/02/05 05:20:42;;;;;;;22.08;6.45;;;8.10;99.90;;;;;;4911695;28;20037;-50
2024/02/05 05:23:08;;;;;;;20.77;6.80;;;8.10;99.90;;;;;;4895644;28;20030;-50
2024/02/05 05:25:35;;;;;;;26.67;6.85;;;8.10;99.90;;;;;;4926377;28;20026;-55
2024/02/05 05:28:01;;;;;;;20.05;7.07;;;8.10;99.90;;;;;;4894061;28;20066;-51
2024/02/05 05:30:26;;;;;;;27.52;7.43;;;8.10;99.90;;;;;;4945340;28;20121;-50
2024/02/05 05:32:52;;;;;;;40.15;7.57;;;8.20;99.90;;;;;;4908336;28;20105;-51
2024/02/05 05:35:18;;;;;;;19.88;6.25;;;8.10;99.90;;;;;;4865946;28;20602;-51
2024/02/05 05:37:43;;;;;;;29.08;6.95;;;8.20;99.90;;;;;;4898558;28;20398;-54
2024/02/05 05:40:10;;;;;;;22.92;7.80;;;8.10;99.90;;;;;;4903050;28;22262;-54
2024/02/05 05:42:36;;;;;;;30.30;7.97;;;8.10;99.90;;;;;;4953303;28;20495;-54
2024/02/05 05:45:03;;;;;;;36.33;7.63;;;8.10;99.90;;;;;;4895946;28;20591;-59
2024/02/05 05:47:28;;;;;;;34.70;7.38;;;8.10;99.90;;;;;;4903288;28;20121;-52
2024/02/05 05:49:54;;;;;;;27.63;7.50;;;8.10;99.90;;;;;;4888227;28;20092;-49
2024/02/05 05:52:20;;;;;;;33.65;7.50;;;8.10;99.90;;;;;;4914910;28;20030;-51
2024/02/05 05:54:46;;;;;;;33.45;8.38;;;8.10;99.90;;;;;;4931315;28;20480;-59
2024/02/05 05:57:11;;;;;;;28.25;6.55;;;8.00;99.90;;;;;;4933464;28;20116;-51
2024/02/05 05:59:40;;;;;;;27.25;7.28;;;8.10;99.90;;;;;;4908281;28;20034;-51
2024/02/05 06:02:05;;;;;;;18.88;6.35;;;8.10;99.90;;;;;;4877003;28;20049;-52
2024/02/05 06:04:31;;;;;;;16.88;5.75;;;8.10;99.90;;;;;;4922963;28;20031;-50
2024/02/05 06:06:58;;;;;;;27.48;6.28;;;8.00;99.90;;;;;;4903512;28;20030;-59
2024/02/05 06:09:26;;;;;;;24.30;5.75;;;8.10;99.90;;;;;;4941687;28;21106;-49
2024/02/05 06:11:52;;;;;;;21.52;6.35;;;8.00;99.90;;;;;;4899328;28;20105;-50
2024/02/05 06:14:18;;;;;;;17.70;6.70;;;8.00;99.90;;;;;;4890879;28;20105;-51
2024/02/05 06:16:43;;;;;;;21.40;6.05;;;8.00;99.90;;;;;;4878968;28;20023;-54
2024/02/05 06:19:09;;;;;;;18.48;6.63;;;8.00;99.90;;;;;;4918603;28;21009;-53
2024/02/05 06:21:34;;;;;;;16.58;5.53;;;8.00;99.90;;;;;;4948985;28;20049;-51
2024/02/05 06:24:00;;;;;;;23.17;5.50;;;8.00;99.90;;;;;;4894357;28;20031;-54
2024/02/05 06:26:25;;;;;;;22.33;5.68;;;8.00;99.90;;;;;;4891581;28;20034;-52
2024/02/05 06:28:51;;;;;;;22.35;7.03;;;8.00;99.90;;;;;;4888902;28;20026;-49
2024/02/05 06:31:17;;;;;;;25.05;7.03;;;8.00;99.90;;;;;;4901123;28;21513;-50
2024/02/05 06:33:42;;;;;;;33.85;6.80;;;8.00;99.90;;;;;;4945182;28;20057;-50
2024/02/05 06:36:09;;;;;;;25.10;6.68;;;8.00;99.90;;;;;;4906224;28;20034;-51
2024/02/05 06:38:34;;;;;;;24.23;7.38;;;8.00;99.90;;;;;;4888009;28;20026;-50
2024/02/05 06:41:00;;;;;;;17.80;6.15;;;8.00;99.90;;;;;;4884447;28;20046;-49
2024/02/05 06:43:26;;;;;;;19.88;5.32;;;8.00;99.90;;;;;;4914178;28;20073;-52
2024/02/05 06:45:51;;;;;;;18.15;5.53;;;7.90;99.90;;;;;;4916598;28;20606;-58
2024/02/05 06:48:17;;;;;;;22.95;5.97;;;7.90;99.90;;;;;;4917990;28;20617;-56
2024/02/05 06:50:42;;;;;;;23.92;6.90;;;7.90;99.90;;;;;;4883038;28;20036;-51
2024/02/05 06:53:08;;;;;;;21.08;6.70;;;7.90;99.90;;;;;;4872512;28;20035;-52
2024/02/05 06:55:34;;;;;;;22.48;6.03;;;7.90;99.90;;;;;;4895720;28;20065;-54
2024/02/05 06:57:59;;;;;;;21.92;6.65;;;7.90;99.90;;;;;;4887139;28;20038;-55
2024/02/05 07:00:25;;;;;;;20.25;6.20;;;7.90;99.90;;;;;;4951753;28;21693;-50
2024/02/05 07:02:50;;;;;;;23.98;6.55;;;7.90;99.90;;;;;;4886053;28;20479;-51
2024/02/05 07:05:18;;;;;;;28.90;6.72;;;7.90;99.90;;;;;;4868237;28;20096;-48
2024/02/05 07:07:44;;;;;;;26.48;7.38;;;7.90;99.90;;;;;;4881400;28;20027;-58
2024/02/05 07:10:10;;;;;;;28.05;7.07;;;7.80;99.90;;;;;;4907463;28;21968;-52
2024/02/05 07:12:35;;;;;;;27.85;6.70;;;7.80;99.90;;;;;;4929790;28;20035;-53
2024/02/05 07:15:01;;;;;;;26.33;6.70;;;7.80;99.90;;;;;;4938106;22;20137;-66
2024/02/05 07:17:36;;;;;;;30.05;8.30;;;7.80;99.90;;;;;;4901535;28;20032;-65
2024/02/05 07:20:02;;;;;;;26.40;8.17;;;7.80;99.90;;;;;;4878180;28;21832;-64
2024/02/05 07:22:28;;;;;;;23.17;7.22;;;7.80;99.90;;;;;;4918778;28;20091;-64
2024/02/05 07:24:55;;;;;;;32.53;8.68;;;7.80;99.90;;;;;;4937634;28;20033;-66
2024/02/05 07:27:25;;;;;;;27.00;6.90;;;7.80;99.90;;;;;;4919316;28;20034;-64
2024/02/05 07:29:51;;;;;;;18.10;6.55;;;7.80;99.90;;;;;;4906408;28;20451;-64
2024/02/05 07:32:17;;;;;;;26.05;7.20;;;7.80;99.90;;;;;;4896846;28;20042;-64
2024/02/05 07:34:42;;;;;;;38.97;8.85;;;7.80;99.90;;;;;;4927592;28;20491;-64
2024/02/05 07:37:08;;;;;;;29.75;7.10;;;7.80;99.90;;;;;;4917415;28;21920;-65
2024/02/05 07:39:33;;;;;;;24.20;7.40;;;7.90;99.90;;;;;;4957631;28;20025;-65
2024/02/05 07:41:59;;;;;;;26.23;6.32;;;7.90;99.90;;;;;;4902994;28;20018;-64
2024/02/05 07:44:26;;;;;;;23.35;6.60;;;7.90;99.90;;;;;;4914378;28;20030;-64
2024/02/05 07:46:51;;;;;;;28.08;7.18;;;7.90;99.90;;;;;;4910906;28;20018;-64
2024/02/05 07:49:17;;;;;;;25.80;7.25;;;7.90;99.90;;;;;;4936844;28;20046;-65
2024/02/05 07:51:47;;;;;;;27.98;8.25;;;8.00;99.90;;;;;;4975022;28;20030;-64
2024/02/05 07:54:13;;;;;;;26.75;6.63;;;8.00;99.90;;;;;;4920158;28;20526;-64
2024/02/05 07:56:42;;;;;;;28.77;8.63;;;7.90;99.90;;;;;;4917558;28;20061;-64
2024/02/05 07:59:08;;;;;;;31.75;7.40;;;8.00;99.90;;;;;;4896882;28;20614;-64
2024/02/05 08:01:33;;;;;;;29.60;8.52;;;8.00;99.90;;;;;;4933306;28;20026;-61
2024/02/05 08:03:59;;;;;;;23.88;6.05;;;8.00;99.90;;;;;;4921564;28;20511;-65
2024/02/05 08:06:28;;;;;;;29.60;7.47;;;8.00;99.90;;;;;;4959374;28;20474;-62
2024/02/05 08:08:54;;;;;;;26.02;5.85;;;8.00;99.90;;;;;;4904058;28;20060;-63
2024/02/05 08:11:20;;;;;;;35.20;7.07;;;8.00;99.90;;;;;;4905898;28;20479;-63
2024/02/05 08:13:46;;;;;;;27.35;7.45;;;8.00;99.90;;;;;;4901364;28;20087;-65
2024/02/05 08:16:11;;;;;;;32.65;7.97;;;8.00;99.90;;;;;;4941417;28;21377;-64
2024/02/05 08:18:37;;;;;;;25.15;6.35;;;8.10;99.90;;;;;;4962110;28;20029;-64
2024/02/05 08:21:04;;;;;;;20.98;7.20;;;8.10;99.90;;;;;;4902118;28;20022;-63
2024/02/05 08:23:29;;;;;;;26.67;7.00;;;8.10;99.90;;;;;;4899832;28;20261;-64
2024/02/05 08:25:55;;;;;;;29.58;6.30;;;8.10;99.90;;;;;;4896917;28;20026;-63
2024/02/05 08:28:20;;;;;;;23.35;5.93;;;8.10;99.90;;;;;;4939713;28;21652;-62
2024/02/05 08:30:46;;;;;;;23.58;5.47;;;8.10;99.90;;;;;;4958656;28;20034;-64
2024/02/05 08:33:13;;;;;;;23.08;6.25;;;8.10;99.90;;;;;;4896110;28;20022;-64
2024/02/05 08:35:40;;;;;;;20.35;6.97;;;8.10;99.90;;;;;;4893780;28;20371;-64
2024/02/05 08:38:08;;;;;;;24.00;6.82;;;8.10;99.90;;;;;;4894502;28;21087;-64
2024/02/05 08:40:34;;;;;;;20.10;5.88;;;8.20;99.90;;;;;;4935928;28;20069;-63
2024/02/05 08:43:03;;;;;;;21.25;6.25;;;8.10;99.90;;;;;;4921618;28;20146;-65
2024/02/05 08:45:30;;;;;;;23.35;6.70;;;8.10;99.90;;;;;;4957862;28;20025;-63
2024/02/05 08:47:55;;;;;;;29.70;7.10;;;8.20;99.90;;;;;;4894915;28;20072;-63
2024/02/05 08:50:29;;;;;;;27.25;7.15;;;8.20;99.90;;;;;;4912964;28;20137;-64
2024/02/05 08:52:54;;;;;;;26.25;5.93;;;8.10;99.90;;;;;;4891255;28;20040;-63
2024/02/05 08:55:20;;;;;;;21.70;6.35;;;8.10;99.90;;;;;;4932376;28;21888;-65
2024/02/05 08:57:49;;;;;;;21.85;6.45;;;8.10;99.90;;;;;;4960712;28;20057;-64
2024/02/05 09:00:15;;;;;;;22.17;7.10;;;8.10;99.90;;;;;;4897844;28;20025;-64
2024/02/05 09:02:40;;;;;;;24.23;6.65;;;8.10;99.90;;;;;;4912269;28;20026;-64
2024/02/05 09:05:06;;;;;;;25.55;7.43;;;8.10;99.90;;;;;;4945810;28;21692;-64
2024/02/05 09:07:32;;;;;;;22.20;5.20;;;8.10;99.90;;;;;;4988111;28;20037;-64
2024/02/05 09:09:57;;;;;;;27.27;7.07;;;8.10;99.90;;;;;;4967303;28;20045;-65
2024/02/05 09:12:23;;;;;;;22.88;6.32;;;8.00;99.90;;;;;;4972736;28;20125;-66
2024/02/05 09:14:50;;;;;;;27.30;6.72;;;8.00;99.90;;;;;;4933899;28;20037;-63
2024/02/05 09:17:16;;;;;;;21.38;6.07;;;8.00;99.90;;;;;;4938500;28;20112;-64
2024/02/05 09:19:42;;;;;;;27.52;5.95;;;8.00;99.90;;;;;;4979928;28;20029;-65
2024/02/05 09:22:08;;;;;;;27.38;7.20;;;8.00;99.90;;;;;;4964926;28;20018;-64
2024/02/05 09:24:33;;;;;;;26.05;6.68;;;8.00;99.90;;;;;;4950386;28;20018;-63
2024/02/05 09:26:59;;;;;;;26.38;6.50;;;8.00;99.90;;;;;;4955048;28;20438;-64
2024/02/05 09:29:24;;;;;;;17.65;5.78;;;8.00;99.90;;;;;;4946029;28;20196;-64
2024/02/05 09:31:50;;;;;;;28.77;6.68;;;8.00;99.90;;;;;;4975102;28;20034;-62
2024/02/05 09:34:16;;;;;;;19.40;5.85;;;8.00;99.90;;;;;;4992421;28;20022;-62
2024/02/05 09:36:42;;;;;;;22.25;5.85;;;8.00;99.90;;;;;;4954367;28;20030;-64
2024/02/05 09:39:07;;;;;;;26.75;6.57;;;7.90;99.90;;;;;;4956377;28;20030;-64
2024/02/05 09:41:34;;;;;;;24.75;5.63;;;7.90;99.90;;;;;;4930002;28;20018;-65
2024/02/05 09:44:00;;;;;;;30.92;7.05;;;7.90;99.90;;;;;;4976560;28;20026;-65
2024/02/05 09:46:30;;;;;;;18.27;6.10;;;7.90;99.90;;;;;;4989487;28;20030;-64
2024/02/05 09:48:58;;;;;;;27.70;6.40;;;7.90;99.90;;;;;;4950295;28;20204;-65
2024/02/05 09:51:27;;;;;;;24.23;6.13;;;7.90;99.90;;;;;;4944770;28;20028;-65
2024/02/05 09:53:52;;;;;;;12.80;5.15;;;7.90;99.90;;;;;;4938986;28;20022;-66
2024/02/05 09:56:20;;;;;;;19.42;6.50;;;7.90;99.90;;;;;;4968741;28;20021;-64
2024/02/05 09:58:46;;;;;;;26.33;7.13;;;7.90;99.90;;;;;;4971854;28;20038;-66
2024/02/05 10:01:13;;;;;;;18.50;5.93;;;7.90;99.90;;;;;;4985992;28;20453;-65
2024/02/05 10:03:40;;;;;;;22.60;6.07;;;7.90;99.90;;;;;;4946220;28;20103;-63
2024/02/05 10:06:09;;;;;;;21.20;7.13;;;7.90;99.90;;;;;;4954866;28;20038;-65
2024/02/05 10:08:36;;;;;;;16.75;5.25;;;7.90;99.90;;;;;;4966206;28;20057;-64
2024/02/05 10:11:04;;;;;;;24.70;6.20;;;8.00;99.90;;;;;;4963018;28;20105;-64
2024/02/05 10:13:30;;;;;;;20.85;6.00;;;8.00;99.90;;;;;;4995069;28;20284;-65
2024/02/05 10:15:56;;;;;;;21.08;5.68;;;8.00;99.90;;;;;;4942404;28;20034;-66
2024/02/05 10:18:21;;;;;;;21.38;5.35;;;8.00;99.90;;;;;;4936058;28;20026;-65
2024/02/05 10:20:47;;;;;;;18.00;5.05;;;8.00;99.90;;;;;;4929745;28;20030;-65
2024/02/05 10:23:12;;;;;;;16.55;5.95;;;8.00;99.90;;;;;;4956772;28;20029;-65
2024/02/05 10:25:39;;;;;;;19.20;5.53;;;8.00;99.90;;;;;;4994231;28;20049;-67
2024/02/05 10:28:06;;;;;;;20.27;6.20;;;8.00;99.90;;;;;;4951314;28;20112;-67
2024/02/05 10:30:33;;;;;;;15.48;6.80;;;8.00;99.90;;;;;;4963439;28;20034;-65
2024/02/05 10:33:03;;;;;;;25.25;5.93;;;8.00;99.90;;;;;;4922611;28;20113;-65
2024/02/05 10:35:29;;;;;;;18.45;6.53;;;8.00;99.90;;;;;;4957654;28;20026;-65
2024/02/05 10:38:09;;;;;;;25.75;6.95;;;8.00;99.90;;;;;;4952456;28;20148;-64
2024/02/05 10:40:36;;;;;;;21.80;6.50;;;7.90;99.90;;;;;;4993877;28;20025;-64
2024/02/05 10:43:04;;;;;;;19.70;6.18;;;8.00;99.90;;;;;;4961456;28;20651;-66
2024/02/05 10:45:31;;;;;;;18.15;6.07;;;8.00;99.90;;;;;;4958206;28;20033;-65
2024/02/05 10:47:56;;;;;;;22.45;7.13;;;8.00;99.90;;;;;;4928893;28;20702;-65
2024/02/05 10:50:22;;;;;;;15.38;5.30;;;7.90;99.90;;;;;;4926123;28;20018;-62
2024/02/05 10:52:48;;;;;;;23.20;7.13;;;8.00;99.90;;;;;;4954463;28;20034;-66
2024/02/05 10:55:15;;;;;;;24.33;6.03;;;8.00;99.90;;;;;;4982051;28;20099;-65
2024/02/05 10:57:43;;;;;;;16.20;6.07;;;8.00;99.90;;;;;;4959823;28;20038;-65
2024/02/05 11:00:09;;;;;;;25.15;6.45;;;8.00;99.90;;;;;;4951252;28;20025;-66
2024/02/05 11:02:41;;;;;;;19.63;6.13;;;8.00;99.90;;;;;;4905869;28;20018;-65
2024/02/05 11:05:09;;;;;;;19.95;6.07;;;7.90;99.90;;;;;;4926273;28;21502;-65
2024/02/05 11:07:45;;;;;;;23.88;6.80;;;8.00;99.90;;;;;;4991019;28;20029;-65
2024/02/05 11:10:11;;;;;;;20.17;6.93;;;8.00;99.90;;;;;;4959798;28;20086;-65
2024/02/05 11:12:38;;;;;;;19.25;6.82;;;8.00;99.90;;;;;;4935007;28;20034;-65
2024/02/05 11:15:09;;;;;;;18.75;6.38;;;8.00;99.90;;;;;;4941628;28;20478;-65
2024/02/05 11:17:36;;;;;;;17.00;6.68;;;8.00;99.90;;;;;;4933380;28;20184;-64
2024/02/05 11:20:09;;;;;;;23.65;6.72;;;8.00;99.90;;;;;;4946100;28;20115;-65
2024/02/05 11:22:37;;;;;;;14.32;5.43;;;8.00;99.90;;;;;;4978447;28;20026;-64
2024/02/05 11:25:06;;;;;;;22.30;6.93;;;8.00;99.90;;;;;;4953713;28;20018;-66
2024/02/05 11:27:32;;;;;;;19.90;6.50;;;8.00;99.90;;;;;;4962574;28;20029;-64
2024/02/05 11:29:58;;;;;;;22.65;7.63;;;8.00;99.90;;;;;;4943116;28;20672;-64
2024/02/05 11:32:33;;;;;;;18.13;6.22;;;8.00;99.90;;;;;;4943424;28;20025;-64
2024/02/05 11:34:59;;;;;;;21.27;6.28;;;8.00;99.90;;;;;;4951571;28;20034;-64
2024/02/05 11:37:27;;;;;;;22.10;6.40;;;8.00;99.90;;;;;;4978429;28;20123;-64
2024/02/05 11:39:55;;;;;;;17.80;6.00;;;8.00;99.90;;;;;;4957266;28;20515;-64
2024/02/05 11:42:20;;;;;;;14.93;5.65;;;8.00;99.90;;;;;;4933203;28;20026;-64
2024/02/05 11:44:51;;;;;;;18.05;6.22;;;8.00;99.90;;;;;;4939333;28;20025;-64
2024/02/05 11:47:16;;;;;;;18.70;6.50;;;8.00;99.90;;;;;;4953846;28;20029;-64
2024/02/05 11:49:46;;;;;;;19.13;5.45;;;8.00;99.90;;;;;;4974770;28;20030;-64
2024/02/05 11:52:12;;;;;;;16.10;5.97;;;8.00;99.90;;;;;;4958596;28;20083;-64
2024/02/05 11:54:38;;;;;;;23.02;6.75;;;8.00;99.90;;;;;;4958301;28;20593;-64
2024/02/05 11:57:04;;;;;;;23.92;6.10;;;7.90;99.90;;;;;;4922852;28;20112;-66
2024/02/05 11:59:29;;;;;;;19.92;5.78;;;8.00;99.90;;;;;;4961663;28;20097;-64
2024/02/05 12:01:55;;;;;;;14.85;5.63;;;8.00;99.90;;;;;;4932433;28;20069;-65
2024/02/05 12:04:21;;;;;;;24.23;6.68;;;8.00;99.90;;;;;;4977245;28;22580;-65
2024/02/05 12:06:47;;;;;;;18.52;5.70;;;8.00;99.90;;;;;;4949245;28;20084;-65
2024/02/05 12:09:14;;;;;;;15.88;5.32;;;8.00;99.90;;;;;;4947847;28;20441;-64
2024/02/05 12:11:39;;;;;;;20.35;5.95;;;8.00;99.90;;;;;;4938561;28;20022;-67
2024/02/05 12:14:10;;;;;;;17.63;5.82;;;8.00;99.90;;;;;;4932964;28;22530;-63
2024/02/05 12:16:36;;;;;;;20.02;4.85;;;8.00;99.90;;;;;;4984607;28;20091;-64
2024/02/05 12:19:02;;;;;;;16.05;5.00;;;8.00;99.90;;;;;;4951227;28;20494;-64
2024/02/05 12:21:31;;;;;;;16.05;4.80;;;8.00;99.90;;;;;;4950059;28;20057;-64
2024/02/05 12:23:57;;;;;;;15.27;4.65;;;7.90;99.90;;;;;;4945632;28;20029;-64
2024/02/05 12:26:23;;;;;;;16.30;6.20;;;7.90;99.90;;;;;;4948633;28;20334;-65
2024/02/05 12:28:51;;;;;;;19.40;5.10;;;7.90;99.90;;;;;;4969795;28;20038;-66
2024/02/05 12:31:21;;;;;;;15.88;5.18;;;7.90;99.90;;;;;;4955943;28;20034;-64
2024/02/05 12:33:56;;;;;;;15.55;5.38;;;7.90;99.90;;;;;;4945238;28;20048;-65
2024/02/05 12:36:23;;;;;;;10.63;4.57;;;7.90;99.90;;;;;;4936969;28;20053;-65
2024/02/05 12:38:50;;;;;;;20.70;5.80;;;7.90;99.90;;;;;;4941985;28;20100;-66
2024/02/05 12:41:15;;;;;;;8.60;4.53;;;7.90;99.90;;;;;;4926281;28;22133;-64
2024/02/05 12:43:41;;;;;;;14.30;5.20;;;7.90;99.90;;;;;;4992988;28;20101;-64